Miracle Valley, Arizona
Current Conditions -  °F | °C
As of 3:56 PM on Saturday 20 Dec 2014 (Local Time) from KFHU Reporting Station
Clear Clear  
Wind Chill: 58°   Ceiling: Unl
Heat Index: 58°   Visibility: 10mi
Dew Point: 18°   Wind: 3mph
Humidity: 21%   Direction: 30°NNE
Pressure: 30.08"   Gusts: NA
Location:  31.4041°N, 110.306°W
Report Text: KFHU 202256Z AUTO 03003KT 10SM CLR 14/M08 A3008 RMK AO2 SLP174 T01441078 $
Loading
Personal Weather Stations






























Interactive Weather Map New forecast layout! Learn more

10-Day Weather Forecast

Advertisements
Track Severe Weather on mobile